Time;durP1;ratioP1;P1;durP2;ratioP2;P2;SDS_P1;SDS_P2;PMS_P1;PMS_P2;Temp;Humidity;BMP_temperature;BMP_pressure;BME280_temperature;BME280_humidity;BME280_pressure;Samples;Min_cycle;Max_cycle;Signal;HPM_P1;HPM_P2
2022/03/04 00:02:11;;;;;;;23.53;20.53;;;-0.70;15.20;;;;;;4980278;28;20185;-69
2022/03/04 00:04:37;;;;;;;20.80;19.20;;;-0.70;15.60;;;;;;4981022;28;20257;-70
2022/03/04 00:07:04;;;;;;;26.93;19.90;;;-0.80;15.50;;;;;;4980855;28;20181;-70
2022/03/04 00:09:30;;;;;;;21.67;19.90;;;-0.90;16.00;;;;;;4980496;28;20240;-69
2022/03/04 00:11:56;;;;;;;23.80;21.00;;;-0.90;16.00;;;;;;4994882;28;20185;-69
2022/03/04 00:14:22;;;;;;;20.83;19.13;;;-0.90;15.80;;;;;;4980217;28;20272;-69
2022/03/04 00:16:47;;;;;;;22.77;20.70;;;-1.00;16.20;;;;;;4979542;28;20502;-69
2022/03/04 00:19:13;;;;;;;20.43;18.70;;;-1.00;16.00;;;;;;4979693;28;20382;-69
2022/03/04 00:21:48;;;;;;;22.40;20.53;;;-1.00;16.10;;;;;;4979807;28;20185;-69
2022/03/04 00:24:18;;;;;;;21.55;19.35;;;-1.00;16.30;;;;;;4979596;28;20188;-68
2022/03/04 00:26:44;;;;;;;21.77;19.73;;;-1.00;16.10;;;;;;4994206;28;20180;-68
2022/03/04 00:29:11;;;;;;;21.85;19.90;;;-1.00;15.60;;;;;;4979245;28;20181;-69
2022/03/04 00:31:37;;;;;;;19.92;18.10;;;-1.00;15.30;;;;;;4979176;28;20178;-69
2022/03/04 00:34:06;;;;;;;20.65;18.65;;;-1.10;15.80;;;;;;4979122;28;20209;-70
2022/03/04 00:36:38;;;;;;;22.25;20.27;;;-1.20;16.80;;;;;;4979170;28;20658;-69
2022/03/04 00:39:07;;;;;;;21.27;19.50;;;-1.30;16.20;;;;;;4993544;28;20177;-68
2022/03/04 00:41:33;;;;;;;21.05;19.00;;;-1.20;16.20;;;;;;4978892;28;20553;-68
2022/03/04 00:43:58;;;;;;;21.63;19.33;;;-1.20;16.20;;;;;;4978966;28;20197;-68
2022/03/04 00:46:24;;;;;;;20.60;18.63;;;-1.20;16.20;;;;;;4978283;28;20878;-69
2022/03/04 00:48:50;;;;;;;18.73;17.17;;;-1.20;16.20;;;;;;4993636;28;20420;-69
2022/03/04 00:51:16;;;;;;;23.43;21.23;;;-1.10;16.20;;;;;;4978898;28;20643;-69
2022/03/04 00:53:42;;;;;;;20.90;19.00;;;-1.20;16.20;;;;;;4977393;28;20212;-69
2022/03/04 00:56:08;;;;;;;22.98;19.33;;;-1.20;16.20;;;;;;4978846;28;20961;-69
2022/03/04 00:58:35;;;;;;;20.88;19.20;;;-1.20;16.20;;;;;;4977860;28;20589;-70
2022/03/04 01:01:01;;;;;;;20.70;18.90;;;-1.10;16.20;;;;;;4978252;28;20178;-69
2022/03/04 01:03:27;;;;;;;22.52;20.42;;;-1.10;16.20;;;;;;4977946;28;20205;-68
2022/03/04 01:05:52;;;;;;;23.93;18.77;;;-1.20;16.20;;;;;;4993059;28;20184;-70
2022/03/04 01:08:18;;;;;;;20.07;18.27;;;-1.20;16.20;;;;;;4977909;28;20204;-68
2022/03/04 01:10:44;;;;;;;19.93;18.17;;;-1.20;15.90;;;;;;4978134;28;20177;-68
2022/03/04 01:13:10;;;;;;;21.10;19.30;;;-1.20;16.20;;;;;;4977126;28;20204;-68
2022/03/04 01:15:35;;;;;;;21.65;19.38;;;-1.20;16.20;;;;;;4978532;28;20248;-68
2022/03/04 01:18:01;;;;;;;17.67;16.17;;;-1.30;16.10;;;;;;4993640;28;20177;-68
2022/03/04 01:20:27;;;;;;;19.73;18.13;;;-1.40;16.10;;;;;;4979284;28;20647;-69
2022/03/04 01:22:53;;;;;;;19.10;17.33;;;-1.40;16.10;;;;;;4979259;28;20224;-69
2022/03/04 01:25:18;;;;;;;20.87;18.93;;;-1.40;16.10;;;;;;4978907;28;20169;-69
2022/03/04 01:27:44;;;;;;;20.13;18.27;;;-1.40;16.10;;;;;;4978625;28;20591;-70
2022/03/04 01:30:10;;;;;;;20.07;18.47;;;-1.40;16.10;;;;;;4978692;28;20260;-69
2022/03/04 01:32:36;;;;;;;20.30;18.42;;;-1.50;16.00;;;;;;4978236;28;20228;-69
2022/03/04 01:35:03;;;;;;;20.55;18.65;;;-1.50;16.00;;;;;;4992440;28;20201;-69
2022/03/04 01:37:28;;;;;;;20.35;18.40;;;-1.60;16.40;;;;;;4977930;28;20299;-69
2022/03/04 01:39:54;;;;;;;20.50;18.60;;;-1.60;16.70;;;;;;4978418;28;20177;-68
2022/03/04 01:42:20;;;;;;;22.67;20.37;;;-1.70;16.60;;;;;;4977711;28;20185;-68
2022/03/04 01:44:46;;;;;;;21.17;19.60;;;-1.80;16.90;;;;;;4977549;28;20271;-69
2022/03/04 01:47:12;;;;;;;20.50;18.50;;;-1.80;17.50;;;;;;4977550;28;20186;-68
2022/03/04 01:49:40;;;;;;;19.20;17.50;;;-1.80;18.10;;;;;;4977232;28;20185;-69
2022/03/04 01:52:07;;;;;;;22.17;19.83;;;-1.70;17.40;;;;;;4976862;28;20432;-69
2022/03/04 01:54:33;;;;;;;23.02;20.70;;;-1.70;17.50;;;;;;4992296;28;20204;-69
2022/03/04 01:56:59;;;;;;;20.20;18.40;;;-1.70;17.40;;;;;;4991732;28;20275;-69
2022/03/04 01:59:24;;;;;;;20.27;18.40;;;-1.80;17.40;;;;;;4977194;28;20898;-69
2022/03/04 02:01:52;;;;;;;20.67;18.50;;;-1.80;17.50;;;;;;4977202;28;20268;-69
2022/03/04 02:04:25;;;;;;;19.60;17.90;;;-1.80;18.00;;;;;;4976702;28;20435;-69
2022/03/04 02:06:51;;;;;;;19.60;18.00;;;-1.90;17.90;;;;;;4975003;28;20243;-69
2022/03/04 02:09:17;;;;;;;21.73;19.10;;;-2.00;18.00;;;;;;4976675;28;20228;-69
2022/03/04 02:11:44;;;;;;;20.92;18.85;;;-2.00;18.10;;;;;;4975929;28;20922;-69
2022/03/04 02:14:11;;;;;;;21.42;19.52;;;-2.00;18.00;;;;;;4975621;28;20236;-69
2022/03/04 02:16:44;;;;;;;19.27;17.40;;;-1.90;18.10;;;;;;4976269;28;20608;-69
2022/03/04 02:19:10;;;;;;;20.27;16.40;;;-1.90;17.80;;;;;;4973914;28;20269;-68
2022/03/04 02:21:40;;;;;;;20.35;17.73;;;-2.00;17.90;;;;;;4957702;29;20188;-69
2022/03/04 02:24:06;;;;;;;20.50;18.42;;;-1.90;18.20;;;;;;4957559;29;20194;-70
2022/03/04 02:26:31;;;;;;;24.13;18.77;;;-2.10;18.30;;;;;;4957736;28;20209;-69
2022/03/04 02:28:57;;;;;;;20.67;18.73;;;-2.10;18.20;;;;;;4955862;29;20189;-69
2022/03/04 02:31:22;;;;;;;20.63;18.60;;;-2.20;18.60;;;;;;4956971;29;20201;-69
2022/03/04 02:33:50;;;;;;;20.10;18.27;;;-2.20;19.20;;;;;;4957359;28;20244;-69
2022/03/04 02:36:15;;;;;;;19.45;17.45;;;-2.20;19.20;;;;;;4957809;28;20208;-68
2022/03/04 02:38:41;;;;;;;18.10;16.30;;;-2.20;19.50;;;;;;4956468;28;20182;-68
2022/03/04 02:41:07;;;;;;;19.85;17.88;;;-2.10;19.10;;;;;;4956245;29;20417;-69
2022/03/04 02:43:34;;;;;;;19.87;17.87;;;-2.10;18.90;;;;;;4957331;29;20190;-68
2022/03/04 02:46:00;;;;;;;19.75;17.92;;;-2.20;19.70;;;;;;4955720;28;20182;-69
2022/03/04 02:48:26;;;;;;;18.70;16.95;;;-2.20;19.70;;;;;;4957121;28;20245;-68
2022/03/04 02:50:51;;;;;;;23.98;17.90;;;-2.40;20.00;;;;;;4957903;28;20237;-72
2022/03/04 02:53:17;;;;;;;19.47;17.67;;;-2.40;20.10;;;;;;4958363;28;20229;-72
2022/03/04 02:55:42;;;;;;;37.27;19.13;;;-2.40;19.70;;;;;;4975384;28;20747;-73
2022/03/04 02:58:08;;;;;;;19.20;17.40;;;-2.30;19.60;;;;;;4960052;28;20213;-72
2022/03/04 03:00:34;;;;;;;20.40;18.53;;;-2.30;19.60;;;;;;4957612;28;20182;-71
2022/03/04 03:02:59;;;;;;;25.63;20.77;;;-2.40;19.80;;;;;;4959547;28;20205;-72
2022/03/04 03:05:25;;;;;;;21.53;19.53;;;-2.30;20.10;;;;;;4962924;29;20425;-73
2022/03/04 03:07:51;;;;;;;20.67;19.17;;;-2.30;19.60;;;;;;4962881;28;20232;-72
2022/03/04 03:10:16;;;;;;;18.47;16.93;;;-2.30;19.70;;;;;;4978050;28;20186;-72
2022/03/04 03:12:42;;;;;;;19.40;17.47;;;-2.20;19.70;;;;;;4963135;28;20186;-72
2022/03/04 03:15:10;;;;;;;19.73;17.83;;;-2.20;20.20;;;;;;4962256;29;20181;-71
2022/03/04 03:17:36;;;;;;;23.65;17.90;;;-2.20;20.00;;;;;;4961790;28;20536;-73
2022/03/04 03:20:07;;;;;;;21.25;19.13;;;-2.20;20.00;;;;;;4962441;28;20174;-72
2022/03/04 03:22:32;;;;;;;22.63;17.90;;;-2.30;20.40;;;;;;4962118;29;20174;-71
2022/03/04 03:24:58;;;;;;;24.50;19.83;;;-2.20;20.70;;;;;;4962143;29;20188;-71
2022/03/04 03:27:24;;;;;;;18.90;17.10;;;-2.20;20.80;;;;;;4961806;29;20426;-71
2022/03/04 03:29:50;;;;;;;17.70;15.90;;;-2.30;20.50;;;;;;4962225;28;20190;-72
2022/03/04 03:32:16;;;;;;;20.27;18.60;;;-2.30;20.20;;;;;;4963734;28;20234;-72
2022/03/04 03:34:41;;;;;;;20.27;18.20;;;-2.30;20.40;;;;;;4962673;28;20465;-72
2022/03/04 03:37:08;;;;;;;23.50;19.27;;;-2.40;20.30;;;;;;4977142;28;20225;-72
2022/03/04 03:39:33;;;;;;;21.30;19.30;;;-2.30;20.70;;;;;;4961458;29;20183;-72
2022/03/04 03:42:00;;;;;;;20.53;18.70;;;-2.40;20.90;;;;;;4962378;28;20185;-71
2022/03/04 03:44:26;;;;;;;26.73;20.95;;;-2.40;20.80;;;;;;4962568;28;20433;-72
2022/03/04 03:46:51;;;;;;;21.13;19.02;;;-2.40;21.00;;;;;;4962817;28;20220;-72
2022/03/04 03:49:17;;;;;;;23.43;18.73;;;-2.40;20.80;;;;;;4961051;28;20182;-72
2022/03/04 03:51:43;;;;;;;20.53;18.53;;;-2.40;21.00;;;;;;4961945;28;20652;-72
2022/03/04 03:54:08;;;;;;;21.60;17.33;;;-2.50;21.10;;;;;;4961170;28;20205;-73
2022/03/04 03:56:34;;;;;;;21.53;18.73;;;-2.50;21.50;;;;;;4960649;28;20464;-72
2022/03/04 03:58:59;;;;;;;19.40;17.30;;;-2.60;21.50;;;;;;4976695;28;20182;-72
2022/03/04 04:01:25;;;;;;;20.60;18.43;;;-2.50;21.70;;;;;;4960674;29;20182;-71
2022/03/04 04:03:51;;;;;;;23.67;21.37;;;-2.60;21.70;;;;;;4961867;29;20194;-72
2022/03/04 04:06:16;;;;;;;23.50;21.03;;;-2.60;22.00;;;;;;4960631;28;20178;-72
2022/03/04 04:08:42;;;;;;;20.67;18.57;;;-2.60;21.70;;;;;;4961933;29;20585;-72
2022/03/04 04:11:08;;;;;;;26.97;20.73;;;-2.70;21.90;;;;;;4960345;28;20186;-72
2022/03/04 04:13:33;;;;;;;21.67;19.47;;;-2.70;22.30;;;;;;4961512;28;20206;-71
2022/03/04 04:15:59;;;;;;;23.17;19.30;;;-2.70;22.50;;;;;;4960916;29;20244;-72
2022/03/04 04:18:25;;;;;;;23.70;21.20;;;-2.80;22.50;;;;;;4960342;29;20554;-72
2022/03/04 04:20:51;;;;;;;23.02;20.60;;;-2.80;22.40;;;;;;4960408;28;20182;-72
2022/03/04 04:23:16;;;;;;;21.53;19.37;;;-2.70;22.40;;;;;;4961308;28;20193;-71
2022/03/04 04:25:42;;;;;;;19.57;17.67;;;-2.70;22.30;;;;;;4976573;28;20178;-71
2022/03/04 04:28:07;;;;;;;20.27;17.90;;;-2.60;22.00;;;;;;4961301;28;20281;-71
2022/03/04 04:30:33;;;;;;;20.77;18.70;;;-2.50;22.00;;;;;;4961907;28;20185;-71
2022/03/04 04:35:24;;;;;;;21.67;19.50;;;-2.60;22.30;;;;;;4993559;23;20280;-70
2022/03/04 04:37:49;;;;;;;21.93;19.77;;;-2.60;22.30;;;;;;4977865;28;20189;-71
2022/03/04 04:40:15;;;;;;;22.07;19.73;;;-2.70;22.20;;;;;;4978086;28;20182;-71
2022/03/04 04:42:41;;;;;;;28.33;20.33;;;-2.70;22.60;;;;;;4977717;28;20669;-71
2022/03/04 04:45:08;;;;;;;21.30;19.23;;;-2.70;22.60;;;;;;4995096;28;20422;-71
2022/03/04 04:47:34;;;;;;;22.23;20.13;;;-2.70;22.60;;;;;;4997391;28;20524;-72
2022/03/04 04:49:59;;;;;;;22.58;20.45;;;-2.70;22.30;;;;;;4997397;28;20230;-71
2022/03/04 04:52:25;;;;;;;20.80;18.83;;;-2.80;22.30;;;;;;4997361;28;20180;-71
2022/03/04 04:54:50;;;;;;;24.27;21.70;;;-2.80;22.10;;;;;;4995308;28;20201;-70
2022/03/04 04:57:16;;;;;;;22.67;20.37;;;-2.70;22.10;;;;;;4996839;28;20203;-71
2022/03/04 04:59:42;;;;;;;22.83;20.57;;;-2.80;22.20;;;;;;4996199;28;20173;-71
2022/03/04 05:02:07;;;;;;;25.70;19.73;;;-2.80;22.20;;;;;;4996179;28;20184;-71
2022/03/04 05:04:33;;;;;;;36.93;21.93;;;-2.80;22.40;;;;;;4995827;28;20261;-70
2022/03/04 05:06:58;;;;;;;22.70;20.40;;;-2.80;22.90;;;;;;4981660;28;20598;-70
2022/03/04 05:09:24;;;;;;;19.47;17.73;;;-2.80;22.70;;;;;;4974245;28;20451;-70
2022/03/04 05:11:50;;;;;;;24.47;20.43;;;-2.90;22.90;;;;;;4975033;28;20421;-71
2022/03/04 05:14:15;;;;;;;23.33;20.83;;;-3.00;22.80;;;;;;4985244;28;20295;-70
2022/03/04 05:16:41;;;;;;;22.53;20.20;;;-3.00;23.30;;;;;;4990539;28;20268;-70
2022/03/04 05:19:07;;;;;;;21.57;19.40;;;-3.10;23.20;;;;;;4987454;28;20848;-71
2022/03/04 05:21:32;;;;;;;25.83;19.20;;;-3.20;23.10;;;;;;4976204;28;20195;-70
2022/03/04 05:24:01;;;;;;;23.50;20.60;;;-3.10;23.20;;;;;;4974866;28;20217;-69
2022/03/04 05:26:31;;;;;;;28.70;21.38;;;-3.00;23.20;;;;;;4981020;28;20191;-70
2022/03/04 05:28:57;;;;;;;25.98;22.08;;;-3.00;23.00;;;;;;4996817;28;20187;-70
2022/03/04 05:31:23;;;;;;;26.00;21.50;;;-3.00;23.20;;;;;;5011840;28;20207;-70
2022/03/04 05:33:50;;;;;;;26.87;22.77;;;-2.90;23.20;;;;;;4996536;28;20215;-70
2022/03/04 05:36:17;;;;;;;25.52;22.38;;;-3.00;23.20;;;;;;4996757;28;20455;-70
2022/03/04 05:38:42;;;;;;;25.33;21.23;;;-3.00;22.90;;;;;;4996444;28;20177;-70
2022/03/04 05:41:08;;;;;;;26.23;22.27;;;-3.10;23.20;;;;;;4996898;28;20307;-69
2022/03/04 05:43:34;;;;;;;23.33;20.90;;;-3.10;23.20;;;;;;4995361;28;20515;-70
2022/03/04 05:45:59;;;;;;;25.10;19.53;;;-3.10;22.60;;;;;;4996752;28;20249;-70
2022/03/04 05:48:25;;;;;;;22.93;20.17;;;-3.20;23.10;;;;;;4995297;28;20188;-68
2022/03/04 05:50:51;;;;;;;23.77;21.30;;;-3.20;23.10;;;;;;4995508;28;20183;-69
2022/03/04 05:53:16;;;;;;;24.10;21.57;;;-3.20;23.10;;;;;;4995294;28;20172;-69
2022/03/04 05:55:42;;;;;;;27.10;22.47;;;-3.20;23.10;;;;;;4995873;28;20285;-69
2022/03/04 05:58:07;;;;;;;31.70;23.67;;;-3.10;23.20;;;;;;4994071;28;20180;-69
2022/03/04 06:00:33;;;;;;;24.03;20.70;;;-3.20;23.10;;;;;;4995314;28;20723;-68
2022/03/04 06:02:59;;;;;;;23.83;21.33;;;-3.20;23.10;;;;;;4995588;28;20252;-69
2022/03/04 06:05:25;;;;;;;27.57;21.73;;;-3.20;23.10;;;;;;4995053;28;20175;-69
2022/03/04 06:07:50;;;;;;;24.73;22.30;;;-3.20;23.10;;;;;;4994492;28;20180;-68
2022/03/04 06:10:16;;;;;;;24.30;21.50;;;-3.10;23.50;;;;;;4994686;28;20183;-69
2022/03/04 06:12:42;;;;;;;23.13;20.80;;;-3.10;23.20;;;;;;4993038;28;20196;-68
2022/03/04 06:15:08;;;;;;;23.80;21.13;;;-3.20;23.30;;;;;;4994788;28;20447;-69
2022/03/04 06:17:34;;;;;;;23.80;21.35;;;-3.10;23.60;;;;;;4995996;28;20612;-72
2022/03/04 06:20:00;;;;;;;26.13;21.05;;;-3.00;23.20;;;;;;4995858;28;20169;-72
2022/03/04 06:22:26;;;;;;;31.13;22.93;;;-2.90;23.30;;;;;;4992563;28;20180;-71
2022/03/04 06:24:51;;;;;;;26.87;22.70;;;-2.90;23.30;;;;;;4992708;28;20689;-74
2022/03/04 06:27:17;;;;;;;34.57;24.60;;;-2.80;23.40;;;;;;4991177;28;20177;-70
2022/03/04 06:29:42;;;;;;;43.63;22.77;;;-2.80;22.60;;;;;;4992686;28;20547;-69
2022/03/04 06:32:09;;;;;;;27.93;23.17;;;-3.00;22.50;;;;;;4992501;28;20249;-71
2022/03/04 06:34:34;;;;;;;26.55;21.65;;;-2.90;23.30;;;;;;4992631;28;20715;-74
2022/03/04 06:37:00;;;;;;;27.00;21.67;;;-2.90;22.70;;;;;;4991924;28;20200;-70
2022/03/04 06:39:26;;;;;;;21.80;19.60;;;-2.90;23.30;;;;;;4989652;28;20181;-70
2022/03/04 06:41:51;;;;;;;24.37;20.30;;;-2.70;23.80;;;;;;4992460;28;20203;-69
2022/03/04 06:44:17;;;;;;;23.17;20.80;;;-2.40;24.90;;;;;;4992453;28;20674;-69
2022/03/04 06:46:42;;;;;;;22.17;19.90;;;-2.20;23.70;;;;;;4991273;28;20527;-70
2022/03/04 06:49:12;;;;;;;21.83;19.70;;;-1.90;22.70;;;;;;4992796;28;20192;-69
2022/03/04 06:51:38;;;;;;;31.58;22.25;;;-1.70;21.60;;;;;;4992786;28;20172;-69
2022/03/04 06:54:04;;;;;;;24.23;21.63;;;-1.70;21.60;;;;;;4992671;28;20204;-69
2022/03/04 06:56:30;;;;;;;28.00;22.43;;;-1.60;21.20;;;;;;4992428;28;20208;-69
2022/03/04 06:58:55;;;;;;;23.60;21.10;;;-1.70;21.20;;;;;;4991294;28;20862;-70
2022/03/04 07:01:21;;;;;;;24.90;22.30;;;-1.60;21.40;;;;;;4992552;28;20411;-70
2022/03/04 07:03:48;;;;;;;28.23;23.67;;;-1.50;20.80;;;;;;4992276;28;20211;-70
2022/03/04 07:06:16;;;;;;;24.35;21.80;;;-1.40;20.70;;;;;;4993144;28;20175;-69
2022/03/04 07:08:42;;;;;;;23.60;21.33;;;-1.30;20.80;;;;;;4991087;28;20187;-70
2022/03/04 07:11:07;;;;;;;22.77;20.47;;;-1.30;20.80;;;;;;4993629;28;20642;-70
2022/03/04 07:13:33;;;;;;;28.10;23.13;;;-1.20;20.80;;;;;;4993038;28;20440;-69
2022/03/04 07:15:59;;;;;;;21.03;19.33;;;-1.10;20.40;;;;;;4991459;28;20203;-70
2022/03/04 07:18:24;;;;;;;34.80;23.07;;;-1.00;20.50;;;;;;4993705;28;20195;-70
2022/03/04 07:20:50;;;;;;;23.93;21.50;;;-1.00;20.40;;;;;;4993878;28;20219;-69
2022/03/04 07:23:16;;;;;;;24.47;21.80;;;-1.10;20.90;;;;;;4993672;28;20361;-69
2022/03/04 07:25:42;;;;;;;31.02;22.98;;;-1.20;20.70;;;;;;4992661;28;20184;-70
2022/03/04 07:28:08;;;;;;;29.05;23.70;;;-1.30;21.30;;;;;;4996471;28;20546;-70
2022/03/04 07:30:34;;;;;;;26.75;21.40;;;-1.40;21.30;;;;;;4995148;28;20248;-70
2022/03/04 07:33:02;;;;;;;28.35;23.15;;;-1.30;21.80;;;;;;4993851;28;20181;-76
2022/03/04 07:35:27;;;;;;;29.80;24.90;;;-1.10;21.50;;;;;;4993240;28;20553;-73
2022/03/04 07:37:53;;;;;;;26.73;24.10;;;-1.00;20.70;;;;;;4992710;28;20263;-73
2022/03/04 07:40:19;;;;;;;24.13;21.73;;;-1.00;20.40;;;;;;4991810;28;20596;-73
2022/03/04 07:42:44;;;;;;;25.43;22.73;;;-1.10;21.10;;;;;;4990691;28;20176;-74
2022/03/04 07:45:11;;;;;;;27.37;24.47;;;-1.10;20.40;;;;;;4992808;28;20224;-72
2022/03/04 07:47:38;;;;;;;25.48;22.80;;;-0.80;20.40;;;;;;4991914;28;20188;-73
2022/03/04 07:50:05;;;;;;;28.92;24.50;;;-0.70;20.10;;;;;;4990772;28;20184;-73
2022/03/04 07:52:31;;;;;;;26.77;23.98;;;-0.60;19.40;;;;;;4999473;28;20264;-73
2022/03/04 07:55:00;;;;;;;23.87;21.17;;;-0.60;19.10;;;;;;5000591;28;20204;-70
2022/03/04 07:57:26;;;;;;;24.27;21.88;;;-0.50;19.60;;;;;;4991146;28;20468;-70
2022/03/04 07:59:51;;;;;;;24.40;21.80;;;-0.30;19.70;;;;;;4992054;28;20188;-71
2022/03/04 08:02:17;;;;;;;24.37;21.77;;;-0.10;19.50;;;;;;4994020;28;20417;-70
2022/03/04 08:04:42;;;;;;;28.93;22.23;;;0.10;19.00;;;;;;4992934;28;20203;-71
2022/03/04 08:07:08;;;;;;;25.30;21.80;;;0.30;19.00;;;;;;5009122;28;20333;-69
2022/03/04 08:09:34;;;;;;;24.43;22.03;;;0.40;18.10;;;;;;5010133;28;20262;-69
2022/03/04 08:12:00;;;;;;;24.08;21.88;;;0.70;17.40;;;;;;4992848;28;20183;-70
2022/03/04 08:14:25;;;;;;;23.20;20.70;;;0.80;16.90;;;;;;4992918;28;20218;-70
2022/03/04 08:16:51;;;;;;;21.30;19.40;;;0.80;16.20;;;;;;4995390;28;20620;-70
2022/03/04 08:19:16;;;;;;;24.60;22.00;;;0.90;15.90;;;;;;5006431;28;20191;-70
2022/03/04 08:21:43;;;;;;;27.57;24.83;;;1.00;15.60;;;;;;4998232;28;20195;-69
2022/03/04 08:24:09;;;;;;;25.70;23.40;;;0.90;15.40;;;;;;4992961;28;20198;-70
2022/03/04 08:26:38;;;;;;;25.47;22.90;;;1.10;16.20;;;;;;4992724;28;20183;-70
2022/03/04 08:29:05;;;;;;;26.52;24.02;;;1.20;15.60;;;;;;4993181;28;20183;-69
2022/03/04 08:31:31;;;;;;;27.02;23.73;;;1.40;15.70;;;;;;4994318;28;20194;-70
2022/03/04 08:33:56;;;;;;;24.70;22.23;;;1.50;14.80;;;;;;4992268;28;20231;-69
2022/03/04 08:36:22;;;;;;;25.90;23.27;;;1.50;13.70;;;;;;4992537;28;20204;-70
2022/03/04 08:38:47;;;;;;;24.43;21.97;;;1.50;13.70;;;;;;4995288;28;20181;-70
2022/03/04 08:41:13;;;;;;;23.97;21.80;;;1.60;13.70;;;;;;5007094;28;20191;-71
2022/03/04 08:43:39;;;;;;;27.03;24.33;;;1.70;13.80;;;;;;5011566;28;20208;-70
2022/03/04 08:46:05;;;;;;;24.57;22.07;;;1.70;13.70;;;;;;4995600;28;20424;-70
2022/03/04 08:48:30;;;;;;;26.80;24.37;;;1.80;13.80;;;;;;5010755;28;20518;-71
2022/03/04 08:50:56;;;;;;;27.60;24.80;;;1.90;13.90;;;;;;4995366;28;20432;-69
2022/03/04 08:53:22;;;;;;;24.37;22.50;;;1.90;13.20;;;;;;4984909;28;20520;-73
2022/03/04 08:55:48;;;;;;;26.50;23.67;;;1.80;12.90;;;;;;4994440;28;20234;-73
2022/03/04 08:58:13;;;;;;;27.70;23.92;;;1.90;13.80;;;;;;4988378;28;20179;-73
2022/03/04 09:00:39;;;;;;;25.33;23.17;;;2.00;13.90;;;;;;4976581;28;20177;-69
2022/03/04 09:03:05;;;;;;;29.57;23.10;;;2.20;14.10;;;;;;4984706;28;20181;-70
2022/03/04 09:05:31;;;;;;;25.97;23.77;;;2.30;13.40;;;;;;5010630;28;20416;-69
2022/03/04 09:07:57;;;;;;;43.42;24.08;;;2.50;12.50;;;;;;4993131;28;20181;-69
2022/03/04 09:10:22;;;;;;;23.60;21.47;;;2.70;12.70;;;;;;4988563;28;20199;-69
2022/03/04 09:12:48;;;;;;;26.07;23.97;;;2.80;12.70;;;;;;4995296;28;20913;-68
2022/03/04 09:15:13;;;;;;;26.70;24.20;;;2.70;11.30;;;;;;5000316;28;20199;-68
2022/03/04 09:17:40;;;;;;;25.83;23.17;;;2.70;11.10;;;;;;5010115;28;20235;-67
2022/03/04 09:20:06;;;;;;;25.20;22.73;;;2.60;10.20;;;;;;4999242;28;20215;-69
2022/03/04 09:22:32;;;;;;;25.27;22.98;;;2.80;11.80;;;;;;4994858;28;20187;-69
2022/03/04 09:24:58;;;;;;;28.70;24.13;;;2.90;11.30;;;;;;4995234;28;20203;-69
2022/03/04 09:27:24;;;;;;;25.77;23.07;;;3.00;10.30;;;;;;4994019;28;20642;-69
2022/03/04 09:29:49;;;;;;;27.07;24.87;;;2.90;10.30;;;;;;4994052;28;20172;-69
2022/03/04 09:32:15;;;;;;;28.80;24.70;;;2.80;10.20;;;;;;4993646;28;20579;-69
2022/03/04 09:34:41;;;;;;;24.20;21.77;;;3.00;10.00;;;;;;4994567;28;20223;-69
2022/03/04 09:37:06;;;;;;;25.97;23.47;;;3.10;8.90;;;;;;4993493;28;20204;-70
2022/03/04 09:39:32;;;;;;;27.10;24.33;;;3.10;8.60;;;;;;4993729;28;20412;-70
2022/03/04 09:41:58;;;;;;;23.90;21.90;;;3.20;9.90;;;;;;4993845;28;20181;-70
2022/03/04 09:44:24;;;;;;;22.50;20.65;;;3.40;9.00;;;;;;4992239;28;20249;-71
2022/03/04 09:46:52;;;;;;;23.97;21.63;;;3.50;8.90;;;;;;4981838;28;20190;-70
2022/03/04 09:49:17;;;;;;;25.45;22.92;;;3.70;8.30;;;;;;4993531;28;20758;-70
2022/03/04 09:51:43;;;;;;;29.00;25.90;;;3.80;9.70;;;;;;4993647;28;20190;-69
2022/03/04 09:54:09;;;;;;;25.20;22.92;;;4.00;8.90;;;;;;4993757;28;20554;-70
2022/03/04 09:56:35;;;;;;;25.37;22.93;;;4.10;8.30;;;;;;4994372;28;20207;-70
2022/03/04 09:59:02;;;;;;;24.98;22.83;;;4.10;8.00;;;;;;4990066;28;20223;-69
2022/03/04 10:01:27;;;;;;;25.57;23.30;;;4.10;9.70;;;;;;4989508;28;20275;-70
2022/03/04 10:03:55;;;;;;;26.80;24.30;;;4.20;9.40;;;;;;4989546;28;20196;-70
2022/03/04 10:06:21;;;;;;;27.58;24.80;;;4.40;9.80;;;;;;4991588;28;20181;-69
2022/03/04 10:08:51;;;;;;;25.73;23.73;;;4.30;9.60;;;;;;5007601;28;20894;-70
2022/03/04 10:11:30;;;;;;;28.60;25.95;;;4.50;10.10;;;;;;5009657;28;20184;-70
2022/03/04 10:13:59;;;;;;;28.55;25.58;;;4.60;9.50;;;;;;5009554;28;20207;-70
2022/03/04 10:16:28;;;;;;;27.42;24.80;;;4.50;9.30;;;;;;4995092;28;20707;-69
2022/03/04 10:19:16;;;;;;;23.55;21.58;;;4.70;9.70;;;;;;4989291;28;20527;-69
2022/03/04 10:21:52;;;;;;;25.95;21.98;;;4.50;9.00;;;;;;4996109;28;20181;-69
2022/03/04 10:24:21;;;;;;;27.05;24.65;;;4.60;8.60;;;;;;5005298;28;20683;-69
2022/03/04 10:26:56;;;;;;;27.30;24.42;;;4.70;8.20;;;;;;4990512;28;20698;-69
2022/03/04 10:29:23;;;;;;;25.50;23.50;;;4.70;8.60;;;;;;4989915;28;20232;-69
2022/03/04 10:32:19;;;;;;;26.40;23.98;;;4.60;7.60;;;;;;4994061;28;20176;-68
2022/03/04 10:34:49;;;;;;;24.55;22.73;;;4.70;7.50;;;;;;4982025;23;20234;-69
2022/03/04 10:37:17;;;;;;;25.38;23.35;;;4.90;7.20;;;;;;4935790;29;20282;-70
2022/03/04 10:40:01;;;;;;;26.50;24.35;;;4.70;6.10;;;;;;4935208;29;20230;-68
2022/03/04 10:42:43;;;;;;;25.35;22.98;;;4.90;6.60;;;;;;4935289;29;20171;-70
2022/03/04 10:45:36;;;;;;;26.30;23.85;;;5.10;5.10;;;;;;4945072;29;21746;-70
2022/03/04 10:48:09;;;;;;;24.92;22.83;;;5.00;4.40;;;;;;4952377;29;20202;-70
2022/03/04 10:50:40;;;;;;;26.73;24.23;;;5.00;4.70;;;;;;4969021;28;20269;-70
2022/03/04 10:53:17;;;;;;;25.08;22.80;;;5.20;4.80;;;;;;4953764;28;20492;-69
2022/03/04 10:55:44;;;;;;;27.67;25.08;;;5.20;4.00;;;;;;4953748;28;20217;-70
2022/03/04 10:58:28;;;;;;;24.05;21.90;;;5.30;4.00;;;;;;4953241;28;20546;-70
2022/03/04 11:00:57;;;;;;;25.05;22.73;;;5.40;3.70;;;;;;4953185;28;20200;-70
2022/03/04 11:03:28;;;;;;;27.23;24.70;;;5.60;3.70;;;;;;4953953;28;20232;-71
2022/03/04 11:05:56;;;;;;;22.45;20.55;;;5.60;2.80;;;;;;4953624;28;20195;-70
2022/03/04 11:08:22;;;;;;;23.65;21.65;;;5.70;3.20;;;;;;4952528;28;20211;-71
2022/03/04 11:10:49;;;;;;;25.83;23.27;;;5.60;3.10;;;;;;4949815;28;20262;-70
2022/03/04 11:13:15;;;;;;;26.50;24.13;;;5.70;3.20;;;;;;4946933;28;20230;-70
2022/03/04 11:15:42;;;;;;;25.37;22.97;;;5.80;2.70;;;;;;4940599;29;20216;-71
2022/03/04 11:18:11;;;;;;;26.30;23.73;;;5.90;2.90;;;;;;4950646;28;20272;-70
2022/03/04 11:20:38;;;;;;;26.27;23.77;;;6.20;2.10;;;;;;4952696;28;20177;-73
2022/03/04 11:23:05;;;;;;;26.70;24.20;;;6.20;2.60;;;;;;4951870;28;20434;-70
2022/03/04 11:25:42;;;;;;;25.03;23.03;;;6.40;2.20;;;;;;4956059;28;20913;-70
2022/03/04 11:28:14;;;;;;;24.70;22.87;;;6.40;2.00;;;;;;4957217;28;20423;-70
2022/03/04 11:30:49;;;;;;;24.73;22.40;;;6.50;2.80;;;;;;4957360;28;20821;-70
2022/03/04 11:33:26;;;;;;;25.77;23.80;;;6.40;1.90;;;;;;4957614;29;20863;-71
2022/03/04 11:35:55;;;;;;;25.30;22.90;;;6.50;1.30;;;;;;4957363;29;20433;-71
2022/03/04 11:38:48;;;;;;;26.13;23.93;;;6.50;1.40;;;;;;4956930;28;20464;-70
2022/03/04 11:41:30;;;;;;;27.80;24.55;;;6.40;1.80;;;;;;4957503;29;20411;-70
2022/03/04 11:44:08;;;;;;;27.23;24.80;;;6.50;1.70;;;;;;4956944;29;20197;-70
2022/03/04 11:46:55;;;;;;;23.80;21.50;;;6.70;1.00;;;;;;4957020;28;20449;-73
2022/03/04 11:49:34;;;;;;;24.90;22.80;;;6.90;1.00;;;;;;4957212;29;20424;-74
2022/03/04 11:52:11;;;;;;;22.60;20.80;;;7.10;1.00;;;;;;4956873;28;20825;-74
2022/03/04 11:54:48;;;;;;;25.53;23.30;;;7.30;1.00;;;;;;4956963;28;20440;-73
2022/03/04 11:57:22;;;;;;;26.67;24.07;;;7.20;1.00;;;;;;4956948;29;20464;-73
2022/03/04 11:59:54;;;;;;;23.37;21.47;;;7.20;1.00;;;;;;4957604;28;20780;-73
2022/03/04 12:02:42;;;;;;;21.90;20.13;;;7.20;1.00;;;;;;4956477;28;20429;-73
2022/03/04 12:05:14;;;;;;;23.17;21.27;;;7.30;1.00;;;;;;4950166;28;20816;-73
2022/03/04 12:07:47;;;;;;;23.40;21.47;;;7.30;1.00;;;;;;4956624;28;20417;-73
2022/03/04 12:10:27;;;;;;;22.70;20.80;;;7.30;1.00;;;;;;4971263;28;20429;-72
2022/03/04 12:13:00;;;;;;;22.13;20.50;;;7.20;1.00;;;;;;4957098;29;20432;-73
2022/03/04 12:15:26;;;;;;;24.53;22.50;;;7.20;1.00;;;;;;4955735;29;20444;-74
2022/03/04 12:17:52;;;;;;;22.87;21.17;;;7.30;1.00;;;;;;4968893;28;20469;-72
2022/03/04 12:20:51;;;;;;;25.07;22.60;;;7.30;1.00;;;;;;4956446;28;20861;-74
2022/03/04 12:23:19;;;;;;;22.07;20.30;;;7.40;1.00;;;;;;4952415;28;20440;-73
2022/03/04 12:25:53;;;;;;;22.20;20.30;;;7.60;1.00;;;;;;4956351;28;21025;-72
2022/03/04 12:28:39;;;;;;;23.80;21.83;;;7.50;1.00;;;;;;4970722;28;20414;-72
2022/03/04 12:31:05;;;;;;;25.07;22.87;;;7.80;1.00;;;;;;4952589;29;20513;-72
2022/03/04 12:33:39;;;;;;;22.10;20.27;;;7.80;1.00;;;;;;4955828;28;20496;-75
2022/03/04 12:36:08;;;;;;;24.07;21.90;;;7.60;1.00;;;;;;4956017;28;20236;-74
2022/03/04 12:38:43;;;;;;;22.73;21.03;;;7.60;1.00;;;;;;4955835;28;20409;-72